Terminal Aerodrome Forecast
Issued by NWS

Home | Current Version | Previous Version | Text Only | Print | Product List | Glossary On
Versions: 1 2 3 4 5 6 7 8 9 10 11 12
000
FTUS42 TJSJ 301745
TAFJPS
TAF
TJPS 301745Z 3018/3118 15010KT P6SM VCTS SCT020CB SCT030 BKN040
      TEMPO 3018/3022 3SM +SHRA BKN030
     FM302330 09007KT P6SM FEW025 SCT080
     FM311400 14013KT P6SM SCT030 SCT060=

USA.gov is the U.S. government's official web portal to all federal, state and local government web resources and services.